createdAt,value
2019-05-09T00:01:37.246Z,17.37
2019-05-09T00:04:14.405Z,16.67
2019-05-09T00:06:46.774Z,12.37
2019-05-09T00:09:20.276Z,14.03
2019-05-09T00:15:26.568Z,14.80
2019-05-09T00:21:54.533Z,15.40
2019-05-09T00:24:57.632Z,13.60
2019-05-09T00:27:53.710Z,15.40
2019-05-09T00:30:54.299Z,15.03
2019-05-09T00:34:03.934Z,13.83
2019-05-09T00:39:54.090Z,13.70
2019-05-09T00:42:58.314Z,13.83
2019-05-09T00:48:56.462Z,13.70
2019-05-09T00:51:54.045Z,15.33
2019-05-09T00:58:07.105Z,12.13
2019-05-09T01:00:38.436Z,14.00
2019-05-09T01:09:39.881Z,14.93
2019-05-09T01:12:31.607Z,12.33
2019-05-09T01:15:19.055Z,15.17
2019-05-09T01:18:18.398Z,15.43
2019-05-09T01:24:03.176Z,15.83
2019-05-09T01:26:54.105Z,13.93
2019-05-09T01:29:39.814Z,15.80
2019-05-09T01:32:39.694Z,14.90
2019-05-09T01:35:20.851Z,16.57
2019-05-09T01:38:04.905Z,16.40
2019-05-09T01:43:54.264Z,16.00
2019-05-09T01:46:45.258Z,16.67
2019-05-09T01:49:30.434Z,16.90
2019-05-09T01:58:43.068Z,15.30
2019-05-09T02:01:23.815Z,16.80
2019-05-09T02:04:13.520Z,17.37
2019-05-09T02:10:08.215Z,18.90
2019-05-09T02:13:28.371Z,15.37
2019-05-09T02:16:25.615Z,16.63
2019-05-09T02:22:36.781Z,18.43
2019-05-09T02:25:25.035Z,16.33
2019-05-09T02:28:14.175Z,17.73
2019-05-09T02:31:06.288Z,16.23
2019-05-09T02:33:58.208Z,14.80
2019-05-09T02:39:48.899Z,17.17
2019-05-09T02:42:31.864Z,17.53
2019-05-09T02:45:11.330Z,18.13
2019-05-09T02:48:13.554Z,17.27
2019-05-09T02:50:48.593Z,15.87
2019-05-09T02:53:33.206Z,19.13
2019-05-09T02:56:29.109Z,18.80
2019-05-09T02:59:10.925Z,17.20
2019-05-09T03:02:09.508Z,17.50
2019-05-09T03:05:02.893Z,15.10
2019-05-09T03:08:15.380Z,18.30
2019-05-09T03:13:59.225Z,18.93
2019-05-09T03:19:58.656Z,16.60
2019-05-09T03:28:52.620Z,17.00
2019-05-09T03:34:55.407Z,16.77
2019-05-09T03:37:43.815Z,19.80
2019-05-09T03:40:31.983Z,17.50
2019-05-09T03:43:22.973Z,19.20
2019-05-09T03:46:08.810Z,18.53
2019-05-09T03:52:01.570Z,17.10
2019-05-09T03:54:51.085Z,18.00
2019-05-09T04:00:37.663Z,18.97
2019-05-09T04:09:51.864Z,17.43
2019-05-09T04:12:55.894Z,19.80
2019-05-09T04:15:52.798Z,19.17
2019-05-09T04:18:48.167Z,17.90
2019-05-09T04:21:41.829Z,17.13
2019-05-09T04:24:48.167Z,19.77
2019-05-09T04:27:41.097Z,18.90
2019-05-09T04:30:29.167Z,17.90
2019-05-09T04:33:38.255Z,18.73
2019-05-09T04:44:32.815Z,16.17
2019-05-09T05:14:43.776Z,19.53
2019-05-09T05:24:20.912Z,18.23
2019-05-09T05:33:32.658Z,19.40
2019-05-09T05:39:14.954Z,20.50
2019-05-09T05:41:50.210Z,21.20
2019-05-09T05:44:32.878Z,19.07
2019-05-09T05:50:42.702Z,17.97
2019-05-09T05:53:30.407Z,20.47
2019-05-09T06:03:10.963Z,13.60
2019-05-09T06:06:14.710Z,17.60
2019-05-09T06:12:08.443Z,16.33
2019-05-09T06:17:57.913Z,16.07
2019-05-09T06:20:31.549Z,19.30
2019-05-09T07:46:47.425Z,19.23
2019-05-09T07:58:50.531Z,18.33
2019-05-09T08:05:08.423Z,26.90
2019-05-09T08:07:40.576Z,21.87
2019-05-09T08:10:13.232Z,24.90
2019-05-09T08:12:48.031Z,21.03
2019-05-09T08:15:20.472Z,29.00
2019-05-09T08:17:53.095Z,100.60
2019-05-09T08:20:27.742Z,111.53
2019-05-09T08:23:02.057Z,75.60
2019-05-09T08:25:34.250Z,52.90
2019-05-09T08:28:09.144Z,28.97
2019-05-09T08:30:41.373Z,29.67
2019-05-09T08:33:14.001Z,32.90
2019-05-09T08:35:52.373Z,29.90
2019-05-09T08:38:22.234Z,26.87
2019-05-09T08:40:58.765Z,30.40
2019-05-09T08:43:30.657Z,25.70
2019-05-09T08:46:03.342Z,23.83
2019-05-09T08:48:37.855Z,24.00
2019-05-09T08:51:14.663Z,32.17
2019-05-09T08:53:48.192Z,21.17
2019-05-09T08:56:21.218Z,24.87
2019-05-09T08:58:57.782Z,27.67
2019-05-09T09:01:45.770Z,24.13
2019-05-09T09:04:02.195Z,24.17
2019-05-09T09:06:34.904Z,22.27
2019-05-09T09:09:13.025Z,29.50
2019-05-09T09:11:58.485Z,26.53
2019-05-09T09:14:34.458Z,22.40
2019-05-09T09:17:10.974Z,18.03
2019-05-09T09:19:49.450Z,20.07
2019-05-09T09:22:24.811Z,23.47
2019-05-09T09:25:09.172Z,25.47
2019-05-09T09:27:42.223Z,25.27
2019-05-09T09:30:20.333Z,26.53
2019-05-09T09:32:49.411Z,27.27
2019-05-09T09:35:21.993Z,26.60
2019-05-09T09:37:54.675Z,27.30
2019-05-09T09:40:28.045Z,27.80
2019-05-09T09:43:01.152Z,23.70
2019-05-09T09:45:34.507Z,26.43
2019-05-09T09:48:09.017Z,26.67
2019-05-09T09:50:41.038Z,22.97
2019-05-09T09:53:14.082Z,23.87
2019-05-09T09:55:47.602Z,23.47
2019-05-09T09:58:32.355Z,27.00
2019-05-09T10:01:18.096Z,24.47
2019-05-09T10:03:54.492Z,28.23
2019-05-09T10:06:28.455Z,23.63
2019-05-09T10:09:01.226Z,21.40
2019-05-09T10:14:03.874Z,26.97
2019-05-09T10:16:51.242Z,28.93
2019-05-09T10:19:29.756Z,27.40
2019-05-09T10:22:08.433Z,18.80
2019-05-09T10:24:41.604Z,26.07
2019-05-09T10:27:18.618Z,24.43
2019-05-09T10:29:51.942Z,31.50
2019-05-09T10:32:24.633Z,32.03
2019-05-09T10:34:58.129Z,26.33
2019-05-09T10:37:31.213Z,27.97
2019-05-09T10:40:04.398Z,28.47
2019-05-09T10:42:41.592Z,27.17
2019-05-09T10:45:18.015Z,27.43
2019-05-09T10:47:51.345Z,30.03
2019-05-09T10:50:24.041Z,25.03
2019-05-09T10:52:58.461Z,24.07
2019-05-09T10:55:31.228Z,25.43
2019-05-09T10:58:04.421Z,27.17
2019-05-09T11:00:39.300Z,25.20
2019-05-09T11:03:11.255Z,24.53
2019-05-09T11:05:43.990Z,24.30
2019-05-09T11:08:18.439Z,27.67
2019-05-09T11:10:53.961Z,26.93
2019-05-09T11:13:28.671Z,27.33
2019-05-09T11:16:01.104Z,29.40
2019-05-09T11:18:33.638Z,28.10
2019-05-09T11:21:08.391Z,25.83
2019-05-09T11:23:40.427Z,28.53
2019-05-09T11:26:12.828Z,22.70
2019-05-09T11:28:45.478Z,25.30
2019-05-09T11:31:18.713Z,21.10
2019-05-09T11:33:53.085Z,27.50
2019-05-09T11:36:25.868Z,26.47
2019-05-09T11:39:00.612Z,22.13
2019-05-09T11:41:32.918Z,25.77
2019-05-09T11:44:05.160Z,23.83
2019-05-09T11:46:38.416Z,25.63
2019-05-09T11:49:11.316Z,23.77
2019-05-09T11:51:43.993Z,25.23
2019-05-09T11:54:19.370Z,25.37
2019-05-09T11:56:51.090Z,25.00
2019-05-09T11:59:23.674Z,27.33
2019-05-09T12:01:58.604Z,24.60
2019-05-09T12:04:31.245Z,24.47
2019-05-09T12:07:03.963Z,19.97
2019-05-09T12:09:38.562Z,21.33
2019-05-09T12:12:11.367Z,19.87
2019-05-09T12:14:43.944Z,20.13
2019-05-09T12:17:19.606Z,22.17
2019-05-09T12:19:50.893Z,22.23
2019-05-09T12:22:23.515Z,19.80
2019-05-09T12:24:56.091Z,22.70
2019-05-09T12:27:28.368Z,20.10
2019-05-09T12:30:01.040Z,17.63
2019-05-09T12:32:34.949Z,18.73
2019-05-09T12:35:09.002Z,19.90
2019-05-09T12:37:41.945Z,19.70
2019-05-09T12:40:15.258Z,18.57
2019-05-09T12:42:49.976Z,19.10
2019-05-09T12:45:23.264Z,17.90
2019-05-09T12:48:07.434Z,18.53
2019-05-09T12:50:31.793Z,17.97
2019-05-09T12:53:04.255Z,18.40
2019-05-09T12:55:38.451Z,18.23
2019-05-09T12:58:13.108Z,15.40
2019-05-09T13:00:45.789Z,17.33
2019-05-09T13:03:18.470Z,17.93
2019-05-09T13:05:51.351Z,16.43
2019-05-09T13:08:23.605Z,17.43
2019-05-09T13:11:02.548Z,14.63
2019-05-09T13:13:35.531Z,14.43
2019-05-09T13:16:20.373Z,17.73
2019-05-09T13:19:03.509Z,25.47
2019-05-09T13:21:38.310Z,17.17
2019-05-09T13:27:23.541Z,17.10
2019-05-09T13:29:56.229Z,15.87
2019-05-09T13:32:28.909Z,17.70
2019-05-09T13:35:01.588Z,18.40
2019-05-09T13:37:34.265Z,19.53
2019-05-09T13:40:08.616Z,22.47
2019-05-09T13:42:41.357Z,17.33
2019-05-09T13:45:14.251Z,20.07
2019-05-09T13:47:48.484Z,20.17
2019-05-09T13:50:21.247Z,18.47
2019-05-09T13:52:54.017Z,16.83
2019-05-09T13:55:27.560Z,17.10
2019-05-09T13:58:00.150Z,18.43
2019-05-09T14:00:32.778Z,16.33
2019-05-09T14:03:08.092Z,16.67
2019-05-09T14:05:40.181Z,19.13
2019-05-09T14:08:12.963Z,20.40
2019-05-09T14:10:48.335Z,19.17
2019-05-09T14:13:23.371Z,20.97
2019-05-09T14:15:54.484Z,21.03
2019-05-09T14:18:27.154Z,19.97
2019-05-09T14:20:59.838Z,21.10
2019-05-09T14:23:35.962Z,23.30
2019-05-09T14:26:09.162Z,17.13
2019-05-09T14:28:40.643Z,17.83
2019-05-09T14:31:13.422Z,18.10
2019-05-09T14:33:47.650Z,18.93
2019-05-09T14:36:20.221Z,22.83
2019-05-09T14:38:52.790Z,29.30
2019-05-09T14:41:27.751Z,18.77
2019-05-09T14:44:01.082Z,20.27
2019-05-09T14:46:34.101Z,20.70
2019-05-09T14:49:07.960Z,20.10
2019-05-09T14:51:40.578Z,19.67
2019-05-09T14:54:13.228Z,18.77
2019-05-09T14:56:48.392Z,19.00
2019-05-09T14:59:19.918Z,31.10
2019-05-09T15:01:52.635Z,23.33
2019-05-09T15:04:27.734Z,21.43
2019-05-09T15:06:59.528Z,24.03
2019-05-09T15:09:32.204Z,20.83
2019-05-09T15:12:04.893Z,20.27
2019-05-09T15:14:38.327Z,20.87
2019-05-09T15:17:12.291Z,20.23
2019-05-09T15:19:57.358Z,21.77
2019-05-09T15:22:19.288Z,21.73
2019-05-09T15:24:54.018Z,25.13
2019-05-09T15:27:27.701Z,21.23
2019-05-09T15:30:00.335Z,23.83
2019-05-09T15:32:33.073Z,18.90
2019-05-09T15:35:09.028Z,20.97
2019-05-09T15:37:42.631Z,18.30
2019-05-09T15:40:17.742Z,22.33
2019-05-09T15:42:50.257Z,23.30
2019-05-09T15:45:23.844Z,22.93
2019-05-09T15:47:58.358Z,22.00
2019-05-09T15:50:30.835Z,21.00
2019-05-09T15:53:03.530Z,21.33
2019-05-09T15:55:36.102Z,18.30
2019-05-09T15:58:08.774Z,22.23
2019-05-09T16:00:41.350Z,21.50
2019-05-09T16:03:15.260Z,19.87
2019-05-09T16:05:48.078Z,22.67
2019-05-09T16:08:21.551Z,18.90
2019-05-09T16:10:54.122Z,18.80
2019-05-09T16:13:28.529Z,20.80
2019-05-09T16:16:00.724Z,22.33
2019-05-09T16:18:33.483Z,22.73
2019-05-09T16:21:08.293Z,19.50
2019-05-09T16:23:40.681Z,21.73
2019-05-09T16:26:13.371Z,19.60
2019-05-09T16:28:48.604Z,18.20
2019-05-09T16:31:20.266Z,21.13
2019-05-09T16:33:52.882Z,24.87
2019-05-09T16:36:28.002Z,20.93
2019-05-09T16:38:59.449Z,22.47
2019-05-09T16:41:32.104Z,21.63
2019-05-09T16:44:07.536Z,20.20
2019-05-09T16:46:39.637Z,20.03
2019-05-09T16:49:16.648Z,20.13
2019-05-09T16:51:48.634Z,21.07
2019-05-09T16:54:23.393Z,21.20
2019-05-09T16:56:57.384Z,20.37
2019-05-09T16:59:30.283Z,21.53
2019-05-09T17:02:17.823Z,21.40
2019-05-09T17:04:38.679Z,25.93
2019-05-09T17:07:11.396Z,24.37
2019-05-09T17:09:48.503Z,27.50
2019-05-09T17:12:20.738Z,23.47
2019-05-09T17:14:53.418Z,26.73
2019-05-09T17:17:27.850Z,27.63
2019-05-09T17:20:00.624Z,27.53
2019-05-09T17:22:43.854Z,31.33
2019-05-09T17:25:18.680Z,29.27
2019-05-09T17:27:50.734Z,30.73
2019-05-09T17:30:23.426Z,29.90
2019-05-09T17:32:58.328Z,30.93
2019-05-09T17:35:31.230Z,32.37
2019-05-09T17:38:04.226Z,32.10
2019-05-09T17:40:39.016Z,37.40
2019-05-09T17:43:11.627Z,40.67
2019-05-09T17:45:44.316Z,50.33
2019-05-09T17:48:18.298Z,43.93
2019-05-09T17:50:51.320Z,41.27
2019-05-09T17:53:23.996Z,41.83
2019-05-09T17:55:58.570Z,43.00
2019-05-09T17:58:33.413Z,46.47
2019-05-09T18:01:07.634Z,48.77
2019-05-09T18:03:39.406Z,50.30
2019-05-09T18:06:12.103Z,52.33
2019-05-09T18:08:44.323Z,51.07
2019-05-09T18:11:17.512Z,50.33
2019-05-09T18:13:50.535Z,51.47
2019-05-09T18:16:23.212Z,49.93
2019-05-09T18:18:58.677Z,49.20
2019-05-09T18:21:31.642Z,49.40
2019-05-09T18:24:03.877Z,48.73
2019-05-09T18:26:38.218Z,46.47
2019-05-09T18:29:10.801Z,41.93
2019-05-09T18:31:48.333Z,34.90
2019-05-09T18:34:21.186Z,33.87
2019-05-09T18:36:53.444Z,34.73
2019-05-09T18:39:27.786Z,33.87
2019-05-09T18:42:00.462Z,33.03
2019-05-09T18:44:33.134Z,36.97
2019-05-09T18:47:07.863Z,35.13
2019-05-09T18:49:40.133Z,33.87
2019-05-09T18:52:12.811Z,34.03
2019-05-09T18:54:45.594Z,39.73
2019-05-09T18:57:19.499Z,43.87
2019-05-09T18:59:52.178Z,45.03
2019-05-09T19:02:24.447Z,46.17
2019-05-09T19:04:57.118Z,49.67
2019-05-09T19:07:29.399Z,44.57
2019-05-09T19:10:02.075Z,41.97
2019-05-09T19:12:34.846Z,38.50
2019-05-09T19:15:10.298Z,39.13
2019-05-09T19:18:00.995Z,41.80
2019-05-09T19:20:35.418Z,44.53
2019-05-09T19:23:08.102Z,61.97
2019-05-09T19:25:40.785Z,67.87
2019-05-09T19:28:13.831Z,61.57
2019-05-09T19:30:46.409Z,55.03
2019-05-09T19:33:19.126Z,69.40
2019-05-09T19:35:51.809Z,82.57
2019-05-09T19:38:24.563Z,76.27
2019-05-09T19:40:57.155Z,70.90
2019-05-09T19:43:29.845Z,60.13
2019-05-09T19:46:02.729Z,57.90
2019-05-09T19:48:35.500Z,54.20
2019-05-09T19:51:08.187Z,49.53
2019-05-09T19:53:40.874Z,46.07
2019-05-09T19:56:13.451Z,52.00
2019-05-09T19:58:46.114Z,53.23
2019-05-09T20:01:20.359Z,57.97
2019-05-09T20:03:55.370Z,58.87
2019-05-09T20:06:28.162Z,90.30
2019-05-09T20:09:00.825Z,127.40
2019-05-09T20:11:41.555Z,134.80
2019-05-09T20:14:15.930Z,109.83
2019-05-09T20:16:49.751Z,68.00
2019-05-09T20:19:22.394Z,63.47
2019-05-09T20:21:55.037Z,78.87
2019-05-09T20:24:27.775Z,93.50
2019-05-09T20:27:00.469Z,86.07
2019-05-09T20:29:33.172Z,82.80
2019-05-09T20:32:06.213Z,81.17
2019-05-09T20:34:38.888Z,84.23
2019-05-09T20:37:11.454Z,80.57
2019-05-09T20:39:43.973Z,83.80
2019-05-09T20:42:17.486Z,92.33
2019-05-09T20:44:51.351Z,92.07
2019-05-09T20:47:25.309Z,87.03
2019-05-09T20:50:02.550Z,81.10
2019-05-09T20:52:36.793Z,83.47
2019-05-09T20:55:09.852Z,94.87
2019-05-09T20:57:42.777Z,95.77
2019-05-09T21:00:16.488Z,111.53
2019-05-09T21:02:52.846Z,101.93
2019-05-09T21:05:26.904Z,95.10
2019-05-09T21:08:00.982Z,78.37
2019-05-09T21:10:35.563Z,78.33
2019-05-09T21:13:08.319Z,51.37
2019-05-09T21:15:41.220Z,86.17
2019-05-09T21:18:14.013Z,116.80
2019-05-09T21:20:46.878Z,122.50
2019-05-09T21:23:24.865Z,53.73
2019-05-09T21:25:54.381Z,41.80
2019-05-09T21:28:27.169Z,47.53
2019-05-09T21:31:00.049Z,50.47
2019-05-09T21:33:33.854Z,72.60
2019-05-09T21:36:06.540Z,70.13
2019-05-09T21:38:39.216Z,52.30
2019-05-09T21:41:11.896Z,47.07
2019-05-09T21:43:44.565Z,41.97
2019-05-09T21:46:17.354Z,40.37
2019-05-09T21:48:50.026Z,36.97
2019-05-09T21:51:22.705Z,44.03
2019-05-09T21:53:55.385Z,44.67
2019-05-09T21:56:28.058Z,55.23
2019-05-09T21:59:00.299Z,64.17
2019-05-09T22:01:34.146Z,67.27
2019-05-09T22:04:06.927Z,44.93
2019-05-09T22:06:39.610Z,51.20
2019-05-09T22:09:12.694Z,43.47
2019-05-09T22:11:45.375Z,42.30
2019-05-09T22:14:18.051Z,44.03
2019-05-09T22:16:50.325Z,44.43
2019-05-09T22:19:23.058Z,50.33
2019-05-09T22:21:55.780Z,62.07
2019-05-09T22:24:29.317Z,46.30
2019-05-09T22:27:01.960Z,45.73
2019-05-09T22:29:34.528Z,41.90
2019-05-09T22:32:07.218Z,51.20
2019-05-09T22:34:39.887Z,45.50
2019-05-09T22:37:12.566Z,39.40
2019-05-09T22:39:45.264Z,41.27
2019-05-09T22:42:18.302Z,34.17
2019-05-09T22:44:51.134Z,35.30
2019-05-09T22:47:23.752Z,34.90
2019-05-09T22:49:56.372Z,32.13
2019-05-09T22:52:28.660Z,31.20
2019-05-09T22:55:01.325Z,33.03
2019-05-09T22:57:34.316Z,35.47
2019-05-09T23:00:08.246Z,36.97
2019-05-09T23:02:42.434Z,38.37
2019-05-09T23:05:15.062Z,36.43
2019-05-09T23:07:48.090Z,33.33
2019-05-09T23:10:21.086Z,27.43
2019-05-09T23:12:54.083Z,29.33
2019-05-09T23:15:27.149Z,39.23
2019-05-09T23:17:59.840Z,35.17
2019-05-09T23:20:41.089Z,34.80
2019-05-09T23:23:22.740Z,41.90
2019-05-09T23:25:55.382Z,39.80
2019-05-09T23:28:29.106Z,32.17
2019-05-09T23:31:03.214Z,31.10
2019-05-09T23:33:37.426Z,26.97
2019-05-09T23:36:10.311Z,27.57
2019-05-09T23:39:00.903Z,30.77
2019-05-09T23:41:35.223Z,31.70
2019-05-09T23:44:07.901Z,32.40
2019-05-09T23:46:40.575Z,28.33
2019-05-09T23:49:13.077Z,30.63
2019-05-09T23:51:51.778Z,27.67
2019-05-09T23:54:46.668Z,27.37
2019-05-09T23:57:35.018Z,21.70
